Bookmark and Share
Track history (hours):
 

Nordstrand

Last reported at 2014-Apr-19 16:28 UTC. Time now 2014-Apr-19 17:03 UTC.
Position N 52°16' W 007°02'.

Length 88 m; draft 5 m.

Type: Cargo ship. MMSI: 235003560.

NotesDate/timePositionNaut miles runAvg speedWind from/ knotsBaromVisibWave heightAir tempDewpointWater temp
2014-Apr-19 16:28N 52°16' W 007°02'0 0.0
2014-Apr-19 15:31N 52°16' W 007°02'0 0.0
2014-Apr-19 14:31N 52°16' W 007°02'0 0.0
2014-Apr-19 13:31N 52°16' W 007°02'0 0.0
2014-Apr-19 12:31N 52°16' W 007°02'0 0.0
2014-Apr-19 11:31N 52°16' W 007°02'0 0.0
2014-Apr-19 10:31N 52°16' W 007°02'0 0.0
2014-Apr-19 09:31N 52°16' W 007°02'0 0.0
2014-Apr-19 08:31N 52°16' W 007°02'0 0.0
2014-Apr-19 07:31N 52°16' W 007°02'0 0.1
2014-Apr-19 06:28N 52°16' W 007°02'0 0.0
2014-Apr-19 05:25N 52°16' W 007°02'0 0.0
2014-Apr-19 04:31N 52°16' W 007°02'0 0.0
2014-Apr-19 03:31N 52°16' W 007°02'0 0.0
2014-Apr-19 01:22N 52°16' W 007°02'0 0.0
2014-Apr-19 00:25N 52°16' W 007°02'0 0.0
2014-Apr-18 22:16N 52°16' W 007°02'0 0.0
2014-Apr-18 21:22N 52°16' W 007°02'0 0.0
2014-Apr-18 20:25N 52°16' W 007°02'0 0.0
2014-Apr-18 19:28N 52°16' W 007°02'0 0.0
2014-Apr-18 18:31N 52°16' W 007°02'0 0.0
2014-Apr-18 17:25N 52°16' W 007°02'0 0.0
2014-Apr-18 16:31N 52°16' W 007°02'0 0.0
2014-Apr-18 15:31N 52°16' W 007°02'0 0.0
2014-Apr-18 14:31N 52°16' W 007°02'0 0.0
2014-Apr-18 13:34N 52°16' W 007°02'5 4.7
2014-Apr-18 12:34N 52°13' W 006°56'7 6.8
2014-Apr-18 11:33N 52°06' W 006°57'9 8.8
2014-Apr-18 10:34N 51°58' W 006°52'163 7.3
2014-Apr-17 12:18N 50°09' W 003°38'65 9.1
2014-Apr-17 05:13N 50°20' W 001°58'811.9
2014-Apr-17 04:33N 50°21' W 001°45'1312.8
2014-Apr-17 03:34N 50°23' W 001°26'1413.5
2014-Apr-17 02:33N 50°26' W 001°05'1313.1
2014-Apr-17 01:33N 50°28' W 000°45'1110.9
2014-Apr-17 00:34N 50°29' W 000°28'20 9.1
2014-Apr-16 22:21N 50°33' E 000°03'9 7.5
2014-Apr-16 21:12N 50°35' E 000°17'5 7.8
2014-Apr-16 20:33N 50°37' E 000°24'9 9.4
2014-Apr-16 19:34N 50°41' E 000°38'1211.3
2014-Apr-16 18:32N 50°47' E 000°53'2511.3
2014-Apr-16 16:18N 51°03' E 001°24'7 9.2
2014-Apr-16 15:33N 51°07' E 001°32'7 7.3
2014-Apr-16 14:34N 51°12' E 001°41'7 7.2
2014-Apr-16 13:34N 51°17' E 001°49'8 7.6
2014-Apr-16 12:28N 51°24' E 001°57'7 7.4
2014-Apr-16 11:33N 51°23' E 002°08'9 9.0
2014-Apr-16 10:33N 51°22' E 002°22'1110.9
2014-Apr-16 09:33N 51°23' E 002°39'1110.5
2014-Apr-16 08:33N 51°23' E 002°56'1110.7
2014-Apr-16 07:33N 51°25' E 003°13'1212.4
2014-Apr-16 06:33N 51°26' E 003°33'1110.6
2014-Apr-16 05:34N 51°21' E 003°48'4 4.4
2014-Apr-16 04:33N 51°17' E 003°50'4 3.6
2014-Apr-16 03:28N 51°13' E 003°48'0 0.0
2014-Apr-16 02:28N 51°13' E 003°48'0 0.0
2014-Apr-16 01:31N 51°13' E 003°48'0 0.0
2014-Apr-15 23:31N 51°13' E 003°48'0 0.0
2014-Apr-15 22:22N 51°13' E 003°48'0 0.0
2014-Apr-15 20:16N 51°13' E 003°48'0 0.0
2014-Apr-15 19:18N 51°13' E 003°48'0 0.0
2014-Apr-15 18:25N 51°13' E 003°48'0 0.0
2014-Apr-15 17:25N 51°13' E 003°48'0 0.0
2014-Apr-15 15:06N 51°13' E 003°48'0 0.0
2014-Apr-15 12:31N 51°13' E 003°48'0 0.0
2014-Apr-15 10:30N 51°13' E 003°48'0 0.0
2014-Apr-15 08:33N 51°13' E 003°48'0 0.0
2014-Apr-15 07:32N 51°13' E 003°48'0 0.0
2014-Apr-15 06:32N 51°13' E 003°48'0 0.0
2014-Apr-15 00:32N 51°13' E 003°48'0 0.0
2014-Apr-14 23:32N 51°13' E 003°48'0 0.0
2014-Apr-14 21:32N 51°13' E 003°48'0 0.0
2014-Apr-14 19:32N 51°13' E 003°48'0 0.0
2014-Apr-14 18:30N 51°13' E 003°48'0 0.0
2014-Apr-14 17:30N 51°13' E 003°48'0 0.0
2014-Apr-14 16:30N 51°13' E 003°48'0 0.0
2014-Apr-14 15:30N 51°13' E 003°48'0 0.0
2014-Apr-14 14:30N 51°13' E 003°48'0 0.0
2014-Apr-14 13:30N 51°13' E 003°48'0 0.0
2014-Apr-14 11:33N 51°13' E 003°48'0 0.0
2014-Apr-14 09:29N 51°13' E 003°48'0 0.0
2014-Apr-14 08:32N 51°13' E 003°48'0 0.0
2014-Apr-14 07:32N 51°13' E 003°48'0 0.0
2014-Apr-14 06:32N 51°13' E 003°48'0 0.0
2014-Apr-13 22:31N 51°13' E 003°48'0 0.0
2014-Apr-13 21:31N 51°13' E 003°48'0 0.0
2014-Apr-13 20:31N 51°13' E 003°48'0 0.0
2014-Apr-13 19:31N 51°13' E 003°48'0 0.0
2014-Apr-13 18:31N 51°13' E 003°48'0 0.0
2014-Apr-13 17:23N 51°13' E 003°48'1 1.7
2014-Apr-13 16:33N 51°15' E 003°49'5 5.5
2014-Apr-13 15:33N 51°20' E 003°49'5 4.8
2014-Apr-13 14:33N 51°23' E 003°43'9 8.9
2014-Apr-13 13:33N 51°25' E 003°29'1212.1
2014-Apr-13 12:34N 51°23' E 003°10'1212.4
2014-Apr-13 11:33N 51°21' E 002°50'1212.2
2014-Apr-13 10:33N 51°22' E 002°31'1611.6
2014-Apr-13 09:13N 51°15' E 002°09'710.8
2014-Apr-13 08:33N 51°11' E 001°59'11 9.5
2014-Apr-13 07:25N 51°04' E 001°45'46 8.9
2014-Apr-13 02:16N 50°31' E 000°55'710.4
2014-Apr-13 01:33N 50°29' E 000°44'5010.0
2014-Apr-12 20:32N 50°32' W 000°35'1212.4
2014-Apr-12 19:34N 50°37' W 000°52'1111.2
2014-Apr-12 18:34N 50°44' W 001°05'8 8.1
2014-Apr-12 17:34N 50°45' W 001°18'0 0.0
2014-Apr-12 16:33N 50°45' W 001°18'0 0.0
2014-Apr-12 15:31N 50°45' W 001°18'0 0.0
2014-Apr-12 14:31N 50°45' W 001°18'0 0.0
2014-Apr-12 13:31N 50°45' W 001°18'0 0.0
2014-Apr-12 12:31N 50°45' W 001°18'0 0.0
2014-Apr-12 11:31N 50°45' W 001°18'0 0.0
2014-Apr-12 10:31N 50°45' W 001°18'0 0.0
2014-Apr-12 09:31N 50°45' W 001°18'0 0.0
2014-Apr-12 08:31N 50°45' W 001°18'0 0.0
2014-Apr-12 07:31N 50°45' W 001°18'0 0.0
2014-Apr-12 06:31N 50°45' W 001°18'0 0.0
2014-Apr-12 05:31N 50°45' W 001°18'0 0.0
2014-Apr-12 04:31N 50°45' W 001°18'0 0.0
2014-Apr-12 03:31N 50°45' W 001°18'0 0.0
2014-Apr-12 02:31N 50°45' W 001°18'0 0.0
2014-Apr-12 01:31N 50°45' W 001°18'0 0.0
2014-Apr-12 00:31N 50°45' W 001°18'0 0.0
2014-Apr-11 23:31N 50°45' W 001°18'0 0.0
2014-Apr-11 22:31N 50°45' W 001°18'0 0.0
2014-Apr-11 21:31N 50°45' W 001°18'0 0.0
2014-Apr-11 20:31N 50°45' W 001°18'0 0.0
2014-Apr-11 19:31N 50°45' W 001°18'0 0.0
2014-Apr-11 18:33N 50°45' W 001°18'0 0.0
2014-Apr-11 17:30N 50°45' W 001°18'0 0.0
2014-Apr-11 16:33N 50°45' W 001°18'0 0.0
2014-Apr-11 15:33N 50°45' W 001°18'0 0.0
2014-Apr-11 14:32N 50°45' W 001°18'0 0.0
2014-Apr-11 13:33N 50°45' W 001°18'0 0.0
2014-Apr-11 12:32N 50°45' W 001°18'0 0.0
2014-Apr-11 11:32N 50°45' W 001°18'0 0.0
2014-Apr-11 10:32N 50°45' W 001°18'0 0.0
2014-Apr-11 09:32N 50°45' W 001°18'0 0.0
2014-Apr-11 08:32N 50°45' W 001°18'0 0.0
2014-Apr-11 07:31N 50°45' W 001°18'0 0.0
2014-Apr-11 06:33N 50°45' W 001°18'0 0.0
2014-Apr-11 05:33N 50°45' W 001°18'0 0.0
2014-Apr-11 04:33N 50°45' W 001°18'0 0.0
2014-Apr-11 03:33N 50°45' W 001°18'0 0.0
2014-Apr-11 02:33N 50°45' W 001°18'0 0.0
2014-Apr-11 01:33N 50°45' W 001°18'0 0.0
2014-Apr-11 00:33N 50°45' W 001°18'0 0.0
2014-Apr-10 23:33N 50°45' W 001°18'0 0.0
2014-Apr-10 22:31N 50°45' W 001°18'3 2.9
2014-Apr-10 21:34N 50°45' W 001°22'1 0.9
2014-Apr-10 20:32N 50°45' W 001°23'0 0.1
2014-Apr-10 19:32N 50°45' W 001°23'0 0.0
2014-Apr-10 18:32N 50°45' W 001°23'0 0.0
2014-Apr-10 17:32N 50°45' W 001°23'7 7.2
2014-Apr-10 16:33N 50°42' W 001°33'1110.7
2014-Apr-10 15:33N 50°36' W 001°47'  

Dump ship's entire track history

sailing weather and tide predictions

Nordstrand — VSQD7 — position and weather